Terminal Aerodrome Forecast
Issued by NWS

Home | Current Version | Previous Version | Text Only | Print | Product List | Glossary On
Versions: 1 2 3 4 5 6 7 8 9 10 11 12 13 14 15 16 17 18 19 20 21 22 23 24 25 26 27
969
FTUS43 KDLH 172100 AAA
TAFBRD
TAF AMD
KBRD 172100Z 1721/1818 34012G20KT P6SM SCT025
     FM172200 33011G17KT P6SM SCT020
     FM180100 33007KT P6SM SCT120
     FM180300 VRB03KT P6SM FEW150
     FM181400 VRB03KT P6SM BKN060=

USA.gov is the U.S. government's official web portal to all federal, state and local government web resources and services.